sensor_id;sensor_type;location;lat;lon;timestamp;P1;durP1;ratioP1;P2;durP2;ratioP2
23078;SDS011;11707;50.830;4.364;2022-09-29T00:02:17;7.53;;;3.85;;
23078;SDS011;11707;50.830;4.364;2022-09-29T00:04:43;7.68;;;3.85;;
23078;SDS011;11707;50.830;4.364;2022-09-29T00:07:08;5.07;;;3.55;;
23078;SDS011;11707;50.830;4.364;2022-09-29T00:09:34;6.97;;;3.50;;
23078;SDS011;11707;50.830;4.364;2022-09-29T00:12:00;7.70;;;3.55;;
23078;SDS011;11707;50.830;4.364;2022-09-29T00:14:26;10.00;;;4.50;;
23078;SDS011;11707;50.830;4.364;2022-09-29T00:16:51;9.02;;;4.55;;
23078;SDS011;11707;50.830;4.364;2022-09-29T00:19:18;6.75;;;4.18;;
23078;SDS011;11707;50.830;4.364;2022-09-29T00:21:44;8.68;;;4.15;;
23078;SDS011;11707;50.830;4.364;2022-09-29T00:24:10;9.27;;;4.20;;
23078;SDS011;11707;50.830;4.364;2022-09-29T00:26:36;10.98;;;4.07;;
23078;SDS011;11707;50.830;4.364;2022-09-29T00:29:02;8.07;;;4.95;;
23078;SDS011;11707;50.830;4.364;2022-09-29T00:31:29;8.75;;;4.28;;
23078;SDS011;11707;50.830;4.364;2022-09-29T00:33:57;6.25;;;3.70;;
23078;SDS011;11707;50.830;4.364;2022-09-29T00:36:23;7.18;;;4.35;;
23078;SDS011;11707;50.830;4.364;2022-09-29T00:38:54;7.38;;;3.95;;
23078;SDS011;11707;50.830;4.364;2022-09-29T00:41:22;12.32;;;5.07;;
23078;SDS011;11707;50.830;4.364;2022-09-29T00:46:32;10.23;;;4.00;;
23078;SDS011;11707;50.830;4.364;2022-09-29T00:54:28;6.70;;;4.13;;
23078;SDS011;11707;50.830;4.364;2022-09-29T00:57:01;6.80;;;3.72;;
23078;SDS011;11707;50.830;4.364;2022-09-29T00:59:31;7.30;;;3.88;;
23078;SDS011;11707;50.830;4.364;2022-09-29T01:02:04;6.85;;;3.72;;
23078;SDS011;11707;50.830;4.364;2022-09-29T01:04:30;6.15;;;3.72;;
23078;SDS011;11707;50.830;4.364;2022-09-29T01:06:56;10.93;;;4.25;;
23078;SDS011;11707;50.830;4.364;2022-09-29T01:09:24;9.25;;;4.30;;
23078;SDS011;11707;50.830;4.364;2022-09-29T01:11:53;8.75;;;4.40;;
23078;SDS011;11707;50.830;4.364;2022-09-29T01:14:22;8.65;;;3.85;;
23078;SDS011;11707;50.830;4.364;2022-09-29T01:16:49;5.65;;;3.67;;
23078;SDS011;11707;50.830;4.364;2022-09-29T01:19:16;8.52;;;4.53;;
23078;SDS011;11707;50.830;4.364;2022-09-29T01:30:14;12.30;;;4.03;;
23078;SDS011;11707;50.830;4.364;2022-09-29T01:35:56;10.43;;;4.47;;
23078;SDS011;11707;50.830;4.364;2022-09-29T01:38:32;11.45;;;4.30;;
23078;SDS011;11707;50.830;4.364;2022-09-29T01:41:09;9.68;;;4.22;;
23078;SDS011;11707;50.830;4.364;2022-09-29T01:43:47;13.18;;;4.53;;
23078;SDS011;11707;50.830;4.364;2022-09-29T01:46:35;9.38;;;4.50;;
23078;SDS011;11707;50.830;4.364;2022-09-29T01:49:05;7.47;;;4.25;;
23078;SDS011;11707;50.830;4.364;2022-09-29T01:51:43;7.82;;;3.90;;
23078;SDS011;11707;50.830;4.364;2022-09-29T01:54:18;9.02;;;4.25;;
23078;SDS011;11707;50.830;4.364;2022-09-29T01:56:51;9.32;;;4.38;;
23078;SDS011;11707;50.830;4.364;2022-09-29T01:59:23;8.60;;;4.13;;
23078;SDS011;11707;50.830;4.364;2022-09-29T02:01:55;8.43;;;4.43;;
23078;SDS011;11707;50.830;4.364;2022-09-29T02:04:35;9.63;;;5.03;;
23078;SDS011;11707;50.830;4.364;2022-09-29T02:07:07;8.30;;;3.70;;
23078;SDS011;11707;50.830;4.364;2022-09-29T02:09:41;7.68;;;3.95;;
23078;SDS011;11707;50.830;4.364;2022-09-29T02:12:11;8.77;;;4.63;;
23078;SDS011;11707;50.830;4.364;2022-09-29T02:14:41;6.32;;;3.72;;
23078;SDS011;11707;50.830;4.364;2022-09-29T02:17:17;8.70;;;4.75;;
23078;SDS011;11707;50.830;4.364;2022-09-29T02:19:45;8.52;;;4.50;;
23078;SDS011;11707;50.830;4.364;2022-09-29T02:22:13;6.00;;;3.85;;
23078;SDS011;11707;50.830;4.364;2022-09-29T02:24:39;7.35;;;4.18;;
23078;SDS011;11707;50.830;4.364;2022-09-29T02:27:05;8.10;;;4.50;;
23078;SDS011;11707;50.830;4.364;2022-09-29T02:29:35;8.35;;;4.25;;
23078;SDS011;11707;50.830;4.364;2022-09-29T02:32:03;9.98;;;4.25;;
23078;SDS011;11707;50.830;4.364;2022-09-29T02:34:30;9.40;;;4.47;;
23078;SDS011;11707;50.830;4.364;2022-09-29T02:39:44;11.38;;;4.05;;
23078;SDS011;11707;50.830;4.364;2022-09-29T02:45:20;8.15;;;4.90;;
23078;SDS011;11707;50.830;4.364;2022-09-29T02:50:35;8.70;;;4.40;;
23078;SDS011;11707;50.830;4.364;2022-09-29T02:58:22;9.90;;;3.85;;
23078;SDS011;11707;50.830;4.364;2022-09-29T03:00:58;7.95;;;3.83;;
23078;SDS011;11707;50.830;4.364;2022-09-29T03:03:24;7.63;;;4.95;;
23078;SDS011;11707;50.830;4.364;2022-09-29T03:05:50;7.78;;;4.57;;
23078;SDS011;11707;50.830;4.364;2022-09-29T03:08:16;7.85;;;4.47;;
23078;SDS011;11707;50.830;4.364;2022-09-29T03:10:42;10.52;;;4.22;;
23078;SDS011;11707;50.830;4.364;2022-09-29T03:13:07;10.68;;;4.22;;
23078;SDS011;11707;50.830;4.364;2022-09-29T03:15:34;7.55;;;4.45;;
23078;SDS011;11707;50.830;4.364;2022-09-29T03:18:00;12.77;;;5.38;;
23078;SDS011;11707;50.830;4.364;2022-09-29T03:20:26;9.80;;;4.47;;
23078;SDS011;11707;50.830;4.364;2022-09-29T03:22:55;9.07;;;4.22;;
23078;SDS011;11707;50.830;4.364;2022-09-29T03:25:21;7.68;;;4.03;;
23078;SDS011;11707;50.830;4.364;2022-09-29T03:27:48;9.88;;;4.68;;
23078;SDS011;11707;50.830;4.364;2022-09-29T03:30:15;9.23;;;4.20;;
23078;SDS011;11707;50.830;4.364;2022-09-29T03:32:41;8.73;;;4.45;;
23078;SDS011;11707;50.830;4.364;2022-09-29T03:35:08;10.02;;;5.03;;
23078;SDS011;11707;50.830;4.364;2022-09-29T03:37:34;7.10;;;4.55;;
23078;SDS011;11707;50.830;4.364;2022-09-29T03:40:00;7.45;;;4.45;;
23078;SDS011;11707;50.830;4.364;2022-09-29T03:42:26;12.00;;;4.32;;
23078;SDS011;11707;50.830;4.364;2022-09-29T03:44:52;8.82;;;4.60;;
23078;SDS011;11707;50.830;4.364;2022-09-29T03:47:18;7.22;;;4.03;;
23078;SDS011;11707;50.830;4.364;2022-09-29T03:49:44;10.43;;;4.00;;
23078;SDS011;11707;50.830;4.364;2022-09-29T03:52:10;7.50;;;4.38;;
23078;SDS011;11707;50.830;4.364;2022-09-29T03:54:36;9.55;;;4.55;;
23078;SDS011;11707;50.830;4.364;2022-09-29T03:57:02;9.50;;;4.35;;
23078;SDS011;11707;50.830;4.364;2022-09-29T03:59:27;8.75;;;4.38;;
23078;SDS011;11707;50.830;4.364;2022-09-29T04:01:53;8.55;;;4.05;;
23078;SDS011;11707;50.830;4.364;2022-09-29T04:04:20;9.50;;;4.40;;
23078;SDS011;11707;50.830;4.364;2022-09-29T04:06:46;6.25;;;3.72;;
23078;SDS011;11707;50.830;4.364;2022-09-29T04:09:11;8.68;;;5.30;;
23078;SDS011;11707;50.830;4.364;2022-09-29T04:11:37;7.85;;;4.65;;
23078;SDS011;11707;50.830;4.364;2022-09-29T04:14:03;10.23;;;3.92;;
23078;SDS011;11707;50.830;4.364;2022-09-29T04:16:29;11.27;;;4.43;;
23078;SDS011;11707;50.830;4.364;2022-09-29T04:18:55;9.18;;;4.50;;
23078;SDS011;11707;50.830;4.364;2022-09-29T04:21:21;7.43;;;4.88;;
23078;SDS011;11707;50.830;4.364;2022-09-29T04:23:46;8.32;;;4.00;;
23078;SDS011;11707;50.830;4.364;2022-09-29T04:26:12;22.08;;;4.88;;
23078;SDS011;11707;50.830;4.364;2022-09-29T04:28:38;7.53;;;4.78;;
23078;SDS011;11707;50.830;4.364;2022-09-29T04:31:04;6.10;;;4.00;;
23078;SDS011;11707;50.830;4.364;2022-09-29T04:33:30;9.40;;;4.93;;
23078;SDS011;11707;50.830;4.364;2022-09-29T04:35:56;9.38;;;5.32;;
23078;SDS011;11707;50.830;4.364;2022-09-29T04:38:23;8.80;;;5.32;;
23078;SDS011;11707;50.830;4.364;2022-09-29T04:40:49;8.65;;;4.40;;
23078;SDS011;11707;50.830;4.364;2022-09-29T04:43:15;9.50;;;5.18;;
23078;SDS011;11707;50.830;4.364;2022-09-29T04:45:41;12.32;;;5.72;;
23078;SDS011;11707;50.830;4.364;2022-09-29T04:48:06;9.38;;;4.75;;
23078;SDS011;11707;50.830;4.364;2022-09-29T04:50:32;7.82;;;4.40;;
23078;SDS011;11707;50.830;4.364;2022-09-29T04:52:58;7.32;;;4.28;;
23078;SDS011;11707;50.830;4.364;2022-09-29T04:55:24;7.47;;;4.70;;
23078;SDS011;11707;50.830;4.364;2022-09-29T04:57:50;10.05;;;4.40;;
23078;SDS011;11707;50.830;4.364;2022-09-29T05:00:16;10.45;;;4.55;;
23078;SDS011;11707;50.830;4.364;2022-09-29T05:02:42;10.93;;;4.00;;
23078;SDS011;11707;50.830;4.364;2022-09-29T05:05:08;11.95;;;4.82;;
23078;SDS011;11707;50.830;4.364;2022-09-29T05:07:36;13.57;;;4.90;;
23078;SDS011;11707;50.830;4.364;2022-09-29T05:10:04;7.43;;;4.75;;
23078;SDS011;11707;50.830;4.364;2022-09-29T05:12:31;9.80;;;4.28;;
23078;SDS011;11707;50.830;4.364;2022-09-29T05:14:56;11.45;;;5.55;;
23078;SDS011;11707;50.830;4.364;2022-09-29T05:17:22;7.00;;;4.40;;
23078;SDS011;11707;50.830;4.364;2022-09-29T05:19:48;12.52;;;4.25;;
23078;SDS011;11707;50.830;4.364;2022-09-29T05:22:14;9.75;;;4.60;;
23078;SDS011;11707;50.830;4.364;2022-09-29T05:24:39;10.43;;;4.70;;
23078;SDS011;11707;50.830;4.364;2022-09-29T05:27:05;8.63;;;4.90;;
23078;SDS011;11707;50.830;4.364;2022-09-29T05:29:31;8.25;;;4.57;;
23078;SDS011;11707;50.830;4.364;2022-09-29T05:31:56;10.57;;;5.47;;
23078;SDS011;11707;50.830;4.364;2022-09-29T05:34:22;13.80;;;5.72;;
23078;SDS011;11707;50.830;4.364;2022-09-29T05:36:48;9.50;;;4.63;;
23078;SDS011;11707;50.830;4.364;2022-09-29T05:39:14;9.38;;;4.25;;
23078;SDS011;11707;50.830;4.364;2022-09-29T05:41:41;16.05;;;4.65;;
23078;SDS011;11707;50.830;4.364;2022-09-29T05:44:07;12.93;;;5.20;;
23078;SDS011;11707;50.830;4.364;2022-09-29T05:46:33;9.70;;;4.45;;
23078;SDS011;11707;50.830;4.364;2022-09-29T05:48:59;12.80;;;5.68;;
23078;SDS011;11707;50.830;4.364;2022-09-29T05:51:25;9.10;;;4.63;;
23078;SDS011;11707;50.830;4.364;2022-09-29T05:53:51;10.88;;;4.45;;
23078;SDS011;11707;50.830;4.364;2022-09-29T05:56:19;9.65;;;4.68;;
23078;SDS011;11707;50.830;4.364;2022-09-29T05:58:46;5.78;;;4.18;;
23078;SDS011;11707;50.830;4.364;2022-09-29T06:01:17;16.55;;;4.57;;
23078;SDS011;11707;50.830;4.364;2022-09-29T06:03:47;9.23;;;4.57;;
23078;SDS011;11707;50.830;4.364;2022-09-29T06:06:17;10.75;;;5.25;;
23078;SDS011;11707;50.830;4.364;2022-09-29T06:08:46;11.50;;;5.20;;
23078;SDS011;11707;50.830;4.364;2022-09-29T06:11:23;11.50;;;4.78;;
23078;SDS011;11707;50.830;4.364;2022-09-29T06:13:51;10.15;;;4.88;;
23078;SDS011;11707;50.830;4.364;2022-09-29T06:16:19;8.50;;;4.30;;
23078;SDS011;11707;50.830;4.364;2022-09-29T06:18:47;9.77;;;4.72;;
23078;SDS011;11707;50.830;4.364;2022-09-29T06:21:18;8.85;;;5.18;;
23078;SDS011;11707;50.830;4.364;2022-09-29T06:23:48;9.07;;;5.30;;
23078;SDS011;11707;50.830;4.364;2022-09-29T06:26:15;10.05;;;4.68;;
23078;SDS011;11707;50.830;4.364;2022-09-29T06:28:43;15.30;;;5.72;;
23078;SDS011;11707;50.830;4.364;2022-09-29T06:31:13;10.00;;;5.30;;
23078;SDS011;11707;50.830;4.364;2022-09-29T06:33:40;8.32;;;5.15;;
23078;SDS011;11707;50.830;4.364;2022-09-29T06:36:08;12.52;;;4.63;;
23078;SDS011;11707;50.830;4.364;2022-09-29T06:39:04;11.55;;;5.72;;
23078;SDS011;11707;50.830;4.364;2022-09-29T06:41:31;11.40;;;5.10;;
23078;SDS011;11707;50.830;4.364;2022-09-29T06:43:58;12.27;;;5.10;;
23078;SDS011;11707;50.830;4.364;2022-09-29T06:46:24;9.45;;;6.00;;
23078;SDS011;11707;50.830;4.364;2022-09-29T06:48:51;18.25;;;6.50;;
23078;SDS011;11707;50.830;4.364;2022-09-29T06:51:21;12.80;;;4.95;;
23078;SDS011;11707;50.830;4.364;2022-09-29T06:53:50;12.60;;;4.97;;
23078;SDS011;11707;50.830;4.364;2022-09-29T06:56:17;9.35;;;5.05;;
23078;SDS011;11707;50.830;4.364;2022-09-29T06:58:44;21.02;;;6.15;;
23078;SDS011;11707;50.830;4.364;2022-09-29T07:01:10;10.15;;;4.65;;
23078;SDS011;11707;50.830;4.364;2022-09-29T07:03:36;7.82;;;4.80;;
23078;SDS011;11707;50.830;4.364;2022-09-29T07:06:03;13.00;;;5.35;;
23078;SDS011;11707;50.830;4.364;2022-09-29T07:08:30;15.85;;;4.85;;
23078;SDS011;11707;50.830;4.364;2022-09-29T07:10:59;11.02;;;5.45;;
23078;SDS011;11707;50.830;4.364;2022-09-29T07:13:25;9.05;;;5.25;;
23078;SDS011;11707;50.830;4.364;2022-09-29T07:15:51;8.90;;;4.68;;
23078;SDS011;11707;50.830;4.364;2022-09-29T07:18:19;13.50;;;5.43;;
23078;SDS011;11707;50.830;4.364;2022-09-29T07:20:45;15.82;;;4.65;;
23078;SDS011;11707;50.830;4.364;2022-09-29T07:23:11;9.30;;;4.50;;
23078;SDS011;11707;50.830;4.364;2022-09-29T07:25:37;9.57;;;4.63;;
23078;SDS011;11707;50.830;4.364;2022-09-29T07:28:03;13.35;;;5.97;;
23078;SDS011;11707;50.830;4.364;2022-09-29T07:30:29;12.50;;;4.63;;
23078;SDS011;11707;50.830;4.364;2022-09-29T07:32:55;9.50;;;4.85;;
23078;SDS011;11707;50.830;4.364;2022-09-29T07:35:22;16.92;;;6.35;;
23078;SDS011;11707;50.830;4.364;2022-09-29T07:37:51;10.48;;;4.88;;
23078;SDS011;11707;50.830;4.364;2022-09-29T07:40:18;14.48;;;6.28;;
23078;SDS011;11707;50.830;4.364;2022-09-29T07:42:45;14.60;;;5.65;;
23078;SDS011;11707;50.830;4.364;2022-09-29T07:45:11;10.88;;;5.40;;
23078;SDS011;11707;50.830;4.364;2022-09-29T07:47:37;11.25;;;5.90;;
23078;SDS011;11707;50.830;4.364;2022-09-29T07:50:03;15.98;;;5.70;;
23078;SDS011;11707;50.830;4.364;2022-09-29T07:52:29;9.68;;;5.55;;
23078;SDS011;11707;50.830;4.364;2022-09-29T07:54:55;11.38;;;6.05;;
23078;SDS011;11707;50.830;4.364;2022-09-29T07:57:21;15.45;;;5.90;;
23078;SDS011;11707;50.830;4.364;2022-09-29T07:59:47;18.50;;;7.10;;
23078;SDS011;11707;50.830;4.364;2022-09-29T08:02:13;13.73;;;5.97;;
23078;SDS011;11707;50.830;4.364;2022-09-29T08:04:39;15.55;;;6.80;;
23078;SDS011;11707;50.830;4.364;2022-09-29T08:07:06;8.25;;;5.38;;
23078;SDS011;11707;50.830;4.364;2022-09-29T08:09:32;16.23;;;6.40;;
23078;SDS011;11707;50.830;4.364;2022-09-29T08:11:57;15.63;;;6.15;;
23078;SDS011;11707;50.830;4.364;2022-09-29T08:14:23;17.20;;;6.18;;
23078;SDS011;11707;50.830;4.364;2022-09-29T08:16:49;12.90;;;5.88;;
23078;SDS011;11707;50.830;4.364;2022-09-29T08:19:16;13.23;;;6.55;;
23078;SDS011;11707;50.830;4.364;2022-09-29T08:21:42;13.52;;;6.70;;
23078;SDS011;11707;50.830;4.364;2022-09-29T08:24:11;9.45;;;5.63;;
23078;SDS011;11707;50.830;4.364;2022-09-29T08:26:38;10.75;;;6.15;;
23078;SDS011;11707;50.830;4.364;2022-09-29T08:29:05;15.27;;;7.13;;
23078;SDS011;11707;50.830;4.364;2022-09-29T08:31:31;10.70;;;5.00;;
23078;SDS011;11707;50.830;4.364;2022-09-29T08:33:57;11.43;;;5.95;;
23078;SDS011;11707;50.830;4.364;2022-09-29T08:36:24;17.75;;;6.60;;
23078;SDS011;11707;50.830;4.364;2022-09-29T08:38:51;19.23;;;6.38;;
23078;SDS011;11707;50.830;4.364;2022-09-29T08:44:06;10.93;;;5.60;;
23078;SDS011;11707;50.830;4.364;2022-09-29T08:46:56;10.77;;;5.78;;
23078;SDS011;11707;50.830;4.364;2022-09-29T08:49:36;12.35;;;5.40;;
23078;SDS011;11707;50.830;4.364;2022-09-29T08:52:09;12.77;;;5.18;;
23078;SDS011;11707;50.830;4.364;2022-09-29T08:54:40;11.97;;;5.97;;
23078;SDS011;11707;50.830;4.364;2022-09-29T08:57:15;10.90;;;5.55;;
23078;SDS011;11707;50.830;4.364;2022-09-29T08:59:45;13.85;;;4.75;;
23078;SDS011;11707;50.830;4.364;2022-09-29T09:02:38;13.32;;;5.28;;
23078;SDS011;11707;50.830;4.364;2022-09-29T09:11:50;6.07;;;3.38;;
23078;SDS011;11707;50.830;4.364;2022-09-29T09:22:30;5.47;;;3.00;;
23078;SDS011;11707;50.830;4.364;2022-09-29T09:25:10;6.90;;;2.83;;
23078;SDS011;11707;50.830;4.364;2022-09-29T09:27:45;6.30;;;2.88;;
23078;SDS011;11707;50.830;4.364;2022-09-29T09:30:19;9.00;;;3.15;;
23078;SDS011;11707;50.830;4.364;2022-09-29T09:32:47;8.50;;;3.53;;
23078;SDS011;11707;50.830;4.364;2022-09-29T09:35:23;6.63;;;3.38;;
23078;SDS011;11707;50.830;4.364;2022-09-29T09:38:01;11.95;;;3.95;;
23078;SDS011;11707;50.830;4.364;2022-09-29T09:40:38;9.02;;;4.13;;
23078;SDS011;11707;50.830;4.364;2022-09-29T09:43:06;5.75;;;3.45;;
23078;SDS011;11707;50.830;4.364;2022-09-29T09:45:52;13.88;;;3.58;;
23078;SDS011;11707;50.830;4.364;2022-09-29T09:48:43;6.75;;;3.13;;
23078;SDS011;11707;50.830;4.364;2022-09-29T09:51:28;4.50;;;2.50;;
23078;SDS011;11707;50.830;4.364;2022-09-29T09:54:12;6.18;;;3.13;;
23078;SDS011;11707;50.830;4.364;2022-09-29T09:56:56;9.75;;;4.65;;
23078;SDS011;11707;50.830;4.364;2022-09-29T10:02:01;4.97;;;2.80;;
23078;SDS011;11707;50.830;4.364;2022-09-29T10:04:27;3.55;;;2.78;;
23078;SDS011;11707;50.830;4.364;2022-09-29T10:06:53;7.70;;;3.40;;
23078;SDS011;11707;50.830;4.364;2022-09-29T10:09:20;7.43;;;3.75;;
23078;SDS011;11707;50.830;4.364;2022-09-29T10:11:46;4.20;;;2.60;;
23078;SDS011;11707;50.830;4.364;2022-09-29T10:22:21;6.43;;;2.63;;
23078;SDS011;11707;50.830;4.364;2022-09-29T10:24:47;5.28;;;2.72;;
23078;SDS011;11707;50.830;4.364;2022-09-29T10:27:21;3.27;;;1.97;;
23078;SDS011;11707;50.830;4.364;2022-09-29T10:29:50;9.80;;;1.83;;
23078;SDS011;11707;50.830;4.364;2022-09-29T10:32:27;7.28;;;2.38;;
23078;SDS011;11707;50.830;4.364;2022-09-29T10:37:45;5.97;;;2.67;;
23078;SDS011;11707;50.830;4.364;2022-09-29T10:40:16;7.50;;;1.95;;
23078;SDS011;11707;50.830;4.364;2022-09-29T10:42:48;3.83;;;1.90;;
23078;SDS011;11707;50.830;4.364;2022-09-29T10:45:22;5.22;;;1.92;;
23078;SDS011;11707;50.830;4.364;2022-09-29T10:50:22;5.15;;;2.10;;
23078;SDS011;11707;50.830;4.364;2022-09-29T10:52:51;4.05;;;2.25;;
23078;SDS011;11707;50.830;4.364;2022-09-29T10:55:23;4.28;;;2.40;;
23078;SDS011;11707;50.830;4.364;2022-09-29T10:57:57;5.70;;;1.88;;
23078;SDS011;11707;50.830;4.364;2022-09-29T11:02:53;7.25;;;3.03;;
23078;SDS011;11707;50.830;4.364;2022-09-29T11:05:32;3.50;;;1.48;;
23078;SDS011;11707;50.830;4.364;2022-09-29T11:07:59;4.38;;;1.50;;
23078;SDS011;11707;50.830;4.364;2022-09-29T11:15:48;3.97;;;1.60;;
23078;SDS011;11707;50.830;4.364;2022-09-29T11:18:19;2.95;;;1.90;;
23078;SDS011;11707;50.830;4.364;2022-09-29T11:21:02;4.05;;;1.42;;
23078;SDS011;11707;50.830;4.364;2022-09-29T11:56:57;3.47;;;1.20;;
23078;SDS011;11707;50.830;4.364;2022-09-29T11:59:44;4.90;;;2.13;;
23078;SDS011;11707;50.830;4.364;2022-09-29T12:07:59;5.43;;;1.15;;
23078;SDS011;11707;50.830;4.364;2022-09-29T12:10:41;7.60;;;1.40;;
23078;SDS011;11707;50.830;4.364;2022-09-29T12:16:24;4.40;;;1.95;;
23078;SDS011;11707;50.830;4.364;2022-09-29T12:18:54;3.85;;;1.05;;
23078;SDS011;11707;50.830;4.364;2022-09-29T12:24:15;2.42;;;1.10;;
23078;SDS011;11707;50.830;4.364;2022-09-29T12:26:51;7.68;;;1.60;;
23078;SDS011;11707;50.830;4.364;2022-09-29T12:31:50;3.80;;;1.33;;
23078;SDS011;11707;50.830;4.364;2022-09-29T12:34:31;5.32;;;1.50;;
23078;SDS011;11707;50.830;4.364;2022-09-29T12:37:05;2.67;;;1.38;;
23078;SDS011;11707;50.830;4.364;2022-09-29T12:40:16;4.97;;;2.15;;
23078;SDS011;11707;50.830;4.364;2022-09-29T12:43:01;6.90;;;2.13;;
23078;SDS011;11707;50.830;4.364;2022-09-29T12:45:43;7.43;;;3.35;;
23078;SDS011;11707;50.830;4.364;2022-09-29T12:48:22;2.58;;;1.20;;
23078;SDS011;11707;50.830;4.364;2022-09-29T12:51:40;5.65;;;1.20;;
23078;SDS011;11707;50.830;4.364;2022-09-29T12:54:13;4.88;;;1.40;;
23078;SDS011;11707;50.830;4.364;2022-09-29T12:56:53;4.65;;;1.58;;
23078;SDS011;11707;50.830;4.364;2022-09-29T13:08:26;2.53;;;1.10;;
23078;SDS011;11707;50.830;4.364;2022-09-29T13:13:57;6.88;;;1.42;;
23078;SDS011;11707;50.830;4.364;2022-09-29T13:16:47;4.75;;;1.40;;
23078;SDS011;11707;50.830;4.364;2022-09-29T13:19:51;8.35;;;1.83;;
23078;SDS011;11707;50.830;4.364;2022-09-29T13:28:21;9.35;;;1.40;;
23078;SDS011;11707;50.830;4.364;2022-09-29T13:30:52;1.45;;;0.85;;
23078;SDS011;11707;50.830;4.364;2022-09-29T13:33:23;2.85;;;0.73;;
23078;SDS011;11707;50.830;4.364;2022-09-29T13:35:50;2.75;;;1.15;;
23078;SDS011;11707;50.830;4.364;2022-09-29T13:54:18;2.38;;;0.82;;
23078;SDS011;11707;50.830;4.364;2022-09-29T13:57:06;2.13;;;0.80;;
23078;SDS011;11707;50.830;4.364;2022-09-29T14:04:54;5.68;;;1.20;;
23078;SDS011;11707;50.830;4.364;2022-09-29T14:12:54;2.85;;;0.90;;
23078;SDS011;11707;50.830;4.364;2022-09-29T14:15:24;2.78;;;1.02;;
23078;SDS011;11707;50.830;4.364;2022-09-29T14:18:00;5.65;;;1.38;;
23078;SDS011;11707;50.830;4.364;2022-09-29T14:20:31;4.95;;;1.05;;
23078;SDS011;11707;50.830;4.364;2022-09-29T14:28:13;3.85;;;1.40;;
23078;SDS011;11707;50.830;4.364;2022-09-29T14:30:45;3.05;;;0.70;;
23078;SDS011;11707;50.830;4.364;2022-09-29T14:36:06;5.57;;;1.40;;
23078;SDS011;11707;50.830;4.364;2022-09-29T14:38:45;3.17;;;1.20;;
23078;SDS011;11707;50.830;4.364;2022-09-29T14:41:21;3.97;;;0.90;;
23078;SDS011;11707;50.830;4.364;2022-09-29T14:58:32;8.15;;;1.65;;
23078;SDS011;11707;50.830;4.364;2022-09-29T15:01:23;5.65;;;1.52;;
23078;SDS011;11707;50.830;4.364;2022-09-29T15:03:55;3.97;;;1.60;;
23078;SDS011;11707;50.830;4.364;2022-09-29T15:06:28;5.57;;;0.98;;
23078;SDS011;11707;50.830;4.364;2022-09-29T15:08:56;5.55;;;0.90;;
23078;SDS011;11707;50.830;4.364;2022-09-29T15:11:43;2.65;;;1.00;;
23078;SDS011;11707;50.830;4.364;2022-09-29T15:19:50;3.00;;;1.25;;
23078;SDS011;11707;50.830;4.364;2022-09-29T15:27:42;5.05;;;1.90;;
23078;SDS011;11707;50.830;4.364;2022-09-29T15:30:12;3.00;;;1.65;;
23078;SDS011;11707;50.830;4.364;2022-09-29T15:32:41;3.20;;;1.63;;
23078;SDS011;11707;50.830;4.364;2022-09-29T15:35:13;8.82;;;2.83;;
23078;SDS011;11707;50.830;4.364;2022-09-29T15:40:20;9.98;;;4.38;;
23078;SDS011;11707;50.830;4.364;2022-09-29T15:42:48;3.72;;;2.22;;
23078;SDS011;11707;50.830;4.364;2022-09-29T15:45:20;6.35;;;1.67;;
23078;SDS011;11707;50.830;4.364;2022-09-29T15:47:49;3.67;;;1.50;;
23078;SDS011;11707;50.830;4.364;2022-09-29T15:50:26;6.53;;;2.53;;
23078;SDS011;11707;50.830;4.364;2022-09-29T15:52:57;3.70;;;1.50;;
23078;SDS011;11707;50.830;4.364;2022-09-29T15:55:27;4.25;;;1.73;;
23078;SDS011;11707;50.830;4.364;2022-09-29T15:57:56;6.03;;;2.72;;
23078;SDS011;11707;50.830;4.364;2022-09-29T16:02:51;7.18;;;1.85;;
23078;SDS011;11707;50.830;4.364;2022-09-29T16:05:25;4.47;;;1.95;;
23078;SDS011;11707;50.830;4.364;2022-09-29T16:10:32;6.05;;;2.70;;
23078;SDS011;11707;50.830;4.364;2022-09-29T16:13:03;4.97;;;2.63;;
23078;SDS011;11707;50.830;4.364;2022-09-29T16:18:01;6.30;;;2.78;;
23078;SDS011;11707;50.830;4.364;2022-09-29T16:20:32;4.43;;;3.28;;
23078;SDS011;11707;50.830;4.364;2022-09-29T16:23:06;3.38;;;2.13;;
23078;SDS011;11707;50.830;4.364;2022-09-29T16:25:41;4.80;;;2.50;;
23078;SDS011;11707;50.830;4.364;2022-09-29T16:28:21;6.72;;;3.55;;
23078;SDS011;11707;50.830;4.364;2022-09-29T16:31:02;9.27;;;2.70;;
23078;SDS011;11707;50.830;4.364;2022-09-29T16:33:45;5.68;;;2.85;;
23078;SDS011;11707;50.830;4.364;2022-09-29T16:36:18;8.50;;;2.88;;
23078;SDS011;11707;50.830;4.364;2022-09-29T16:38:47;8.95;;;4.53;;
23078;SDS011;11707;50.830;4.364;2022-09-29T16:41:25;9.88;;;3.03;;
23078;SDS011;11707;50.830;4.364;2022-09-29T16:46:48;10.75;;;4.07;;
23078;SDS011;11707;50.830;4.364;2022-09-29T16:49:18;5.38;;;3.10;;
23078;SDS011;11707;50.830;4.364;2022-09-29T16:51:47;8.88;;;3.05;;
23078;SDS011;11707;50.830;4.364;2022-09-29T16:54:15;7.60;;;2.88;;
23078;SDS011;11707;50.830;4.364;2022-09-29T16:56:48;6.53;;;3.83;;
23078;SDS011;11707;50.830;4.364;2022-09-29T16:59:32;5.50;;;2.15;;
23078;SDS011;11707;50.830;4.364;2022-09-29T17:01:58;4.95;;;1.75;;
23078;SDS011;11707;50.830;4.364;2022-09-29T17:04:24;2.10;;;1.17;;
23078;SDS011;11707;50.830;4.364;2022-09-29T17:06:50;5.18;;;1.73;;
23078;SDS011;11707;50.830;4.364;2022-09-29T17:09:19;3.72;;;1.88;;
23078;SDS011;11707;50.830;4.364;2022-09-29T17:11:51;6.25;;;1.80;;
23078;SDS011;11707;50.830;4.364;2022-09-29T17:14:17;6.72;;;2.55;;
23078;SDS011;11707;50.830;4.364;2022-09-29T17:16:43;5.60;;;2.83;;
23078;SDS011;11707;50.830;4.364;2022-09-29T17:19:09;4.57;;;1.90;;
23078;SDS011;11707;50.830;4.364;2022-09-29T17:21:36;4.35;;;1.90;;
23078;SDS011;11707;50.830;4.364;2022-09-29T17:24:02;5.00;;;2.20;;
23078;SDS011;11707;50.830;4.364;2022-09-29T17:26:37;5.78;;;3.22;;
23078;SDS011;11707;50.830;4.364;2022-09-29T17:29:24;7.85;;;4.35;;
23078;SDS011;11707;50.830;4.364;2022-09-29T17:31:50;9.63;;;2.10;;
23078;SDS011;11707;50.830;4.364;2022-09-29T17:34:16;5.60;;;2.17;;
23078;SDS011;11707;50.830;4.364;2022-09-29T17:36:53;3.63;;;2.03;;
23078;SDS011;11707;50.830;4.364;2022-09-29T17:39:24;7.50;;;3.58;;
23078;SDS011;11707;50.830;4.364;2022-09-29T17:41:50;3.45;;;1.83;;
23078;SDS011;11707;50.830;4.364;2022-09-29T17:44:16;5.18;;;2.10;;
23078;SDS011;11707;50.830;4.364;2022-09-29T17:46:43;5.30;;;2.25;;
23078;SDS011;11707;50.830;4.364;2022-09-29T17:49:12;4.18;;;1.77;;
23078;SDS011;11707;50.830;4.364;2022-09-29T17:51:40;7.57;;;2.70;;
23078;SDS011;11707;50.830;4.364;2022-09-29T17:54:06;8.55;;;3.30;;
23078;SDS011;11707;50.830;4.364;2022-09-29T17:56:33;4.43;;;2.40;;
23078;SDS011;11707;50.830;4.364;2022-09-29T17:59:04;5.93;;;2.70;;
23078;SDS011;11707;50.830;4.364;2022-09-29T18:01:30;4.22;;;1.83;;
23078;SDS011;11707;50.830;4.364;2022-09-29T18:03:58;3.83;;;2.45;;
23078;SDS011;11707;50.830;4.364;2022-09-29T18:06:25;4.78;;;2.70;;
23078;SDS011;11707;50.830;4.364;2022-09-29T18:08:52;11.25;;;3.20;;
23078;SDS011;11707;50.830;4.364;2022-09-29T18:11:20;3.25;;;1.90;;
23078;SDS011;11707;50.830;4.364;2022-09-29T18:13:49;4.38;;;2.17;;
23078;SDS011;11707;50.830;4.364;2022-09-29T18:16:19;7.95;;;2.55;;
23078;SDS011;11707;50.830;4.364;2022-09-29T18:18:46;8.30;;;3.00;;
23078;SDS011;11707;50.830;4.364;2022-09-29T18:21:12;4.57;;;2.50;;
23078;SDS011;11707;50.830;4.364;2022-09-29T18:23:40;3.97;;;2.38;;
23078;SDS011;11707;50.830;4.364;2022-09-29T18:26:08;6.57;;;3.25;;
23078;SDS011;11707;50.830;4.364;2022-09-29T18:28:35;7.10;;;3.97;;
23078;SDS011;11707;50.830;4.364;2022-09-29T18:31:06;10.52;;;5.05;;
23078;SDS011;11707;50.830;4.364;2022-09-29T18:33:38;3.75;;;2.20;;
23078;SDS011;11707;50.830;4.364;2022-09-29T18:36:04;7.25;;;4.20;;